createdAt,value
2022-10-31T00:01:39.101Z,45.33
2022-10-31T00:04:09.201Z,39.33
2022-10-31T00:06:38.966Z,44.00
2022-10-31T00:09:06.610Z,42.67
2022-10-31T00:11:33.627Z,36.00
2022-10-31T00:14:02.127Z,45.33
2022-10-31T00:16:29.574Z,41.00
2022-10-31T00:19:08.297Z,41.00
2022-10-31T00:21:36.165Z,39.67
2022-10-31T00:24:03.868Z,42.33
2022-10-31T00:26:37.427Z,40.33
2022-10-31T00:29:07.343Z,45.00
2022-10-31T00:31:34.330Z,45.67
2022-10-31T00:34:03.973Z,44.00
2022-10-31T00:36:30.769Z,39.00
2022-10-31T00:38:59.395Z,38.33
2022-10-31T00:41:26.298Z,36.33
2022-10-31T00:43:53.388Z,39.67
2022-10-31T00:46:24.628Z,43.00
2022-10-31T00:48:56.298Z,41.67
2022-10-31T00:51:23.210Z,40.00
2022-10-31T00:53:50.353Z,42.67
2022-10-31T00:56:17.186Z,37.00
2022-10-31T00:58:47.197Z,42.00
2022-10-31T01:01:14.448Z,37.00
2022-10-31T01:03:41.756Z,39.00
2022-10-31T01:06:11.649Z,40.33
2022-10-31T01:08:39.775Z,39.33
2022-10-31T01:11:22.418Z,39.67
2022-10-31T01:13:52.764Z,42.67
2022-10-31T01:16:25.617Z,44.33
2022-10-31T01:18:53.250Z,32.00
2022-10-31T01:21:28.983Z,39.67
2022-10-31T01:23:56.956Z,39.33
2022-10-31T01:26:32.106Z,42.67
2022-10-31T01:29:02.435Z,45.67
2022-10-31T01:31:35.321Z,45.33
2022-10-31T01:34:17.256Z,44.33
2022-10-31T01:37:01.457Z,42.67
2022-10-31T01:39:30.763Z,45.67
2022-10-31T01:41:57.607Z,43.00
2022-10-31T01:44:24.633Z,46.67
2022-10-31T01:47:15.450Z,43.00
2022-10-31T01:50:05.454Z,47.00
2022-10-31T01:52:38.721Z,57.00
2022-10-31T01:55:16.888Z,47.00
2022-10-31T01:57:52.006Z,44.00
2022-10-31T02:00:21.765Z,42.33
2022-10-31T02:02:50.563Z,41.33
2022-10-31T02:05:22.421Z,39.00
2022-10-31T02:08:02.124Z,43.67
2022-10-31T02:10:35.789Z,44.00
2022-10-31T02:13:09.597Z,42.00
2022-10-31T02:15:40.612Z,39.67
2022-10-31T02:18:09.125Z,36.00
2022-10-31T02:21:04.434Z,43.00
2022-10-31T02:24:05.812Z,42.67
2022-10-31T02:26:44.961Z,44.67
2022-10-31T02:29:33.426Z,45.00
2022-10-31T02:32:27.200Z,37.00
2022-10-31T02:35:06.397Z,42.00
2022-10-31T02:37:37.807Z,43.33
2022-10-31T02:40:20.548Z,43.00
2022-10-31T02:43:18.529Z,41.67
2022-10-31T02:46:37.841Z,41.33
2022-10-31T02:49:21.621Z,41.00
2022-10-31T02:51:57.214Z,35.33
2022-10-31T02:54:29.498Z,31.67
2022-10-31T02:57:04.378Z,41.33
2022-10-31T02:59:52.323Z,31.67
2022-10-31T03:02:38.620Z,36.67
2022-10-31T03:05:21.824Z,43.00
2022-10-31T03:08:34.163Z,38.33
2022-10-31T03:11:04.205Z,41.33
2022-10-31T03:13:31.591Z,39.00
2022-10-31T03:16:22.176Z,35.67
2022-10-31T03:19:28.824Z,39.67
2022-10-31T03:22:15.893Z,29.33
2022-10-31T03:24:44.483Z,33.67
2022-10-31T03:27:16.053Z,50.75
2022-10-31T03:29:45.556Z,50.50
2022-10-31T03:32:27.471Z,47.50
2022-10-31T03:34:59.244Z,48.50
2022-10-31T03:37:30.793Z,47.00
2022-10-31T03:40:03.714Z,43.67
2022-10-31T03:42:34.278Z,40.00
2022-10-31T03:45:12.671Z,43.33
2022-10-31T03:47:41.407Z,39.33
2022-10-31T03:50:11.168Z,34.00
2022-10-31T03:53:08.922Z,40.00
2022-10-31T03:55:44.561Z,40.33
2022-10-31T03:58:39.035Z,38.67
2022-10-31T04:01:10.580Z,37.00
2022-10-31T04:07:08.092Z,35.33
2022-10-31T04:09:39.528Z,34.00
2022-10-31T04:12:40.075Z,30.67
2022-10-31T04:15:11.269Z,36.00
2022-10-31T04:17:48.204Z,33.00
2022-10-31T04:20:32.564Z,34.67
2022-10-31T04:23:00.034Z,35.00
2022-10-31T04:25:27.014Z,41.67
2022-10-31T23:02:03.691Z,76.00
2022-10-31T23:04:33.056Z,73.00
2022-10-31T23:06:59.870Z,67.25
2022-10-31T23:09:27.005Z,67.75
2022-10-31T23:11:53.824Z,85.50
2022-10-31T23:14:21.340Z,68.25
2022-10-31T23:16:48.185Z,69.00
2022-10-31T23:19:28.871Z,72.75
2022-10-31T23:22:04.583Z,76.50
2022-10-31T23:24:46.065Z,77.00
2022-10-31T23:30:02.241Z,81.50
2022-10-31T23:32:31.174Z,73.00
2022-10-31T23:35:00.464Z,80.50
2022-10-31T23:37:30.049Z,74.25
2022-10-31T23:39:57.522Z,88.25
2022-10-31T23:42:25.021Z,84.00
2022-10-31T23:44:53.887Z,97.25
2022-10-31T23:47:21.635Z,97.50
2022-10-31T23:49:49.050Z,103.00
